createdAt,value
2018-11-28T00:00:29.030Z,9.70
2018-11-28T00:02:58.328Z,9.61
2018-11-28T00:05:27.457Z,9.67
2018-11-28T00:07:56.272Z,9.72
2018-11-28T00:10:25.462Z,9.61
2018-11-28T00:12:54.544Z,9.64
2018-11-28T00:15:23.741Z,9.55
2018-11-28T00:17:53.157Z,9.48
2018-11-28T00:20:23.169Z,9.56
2018-11-28T00:22:52.238Z,9.48
2018-11-28T00:25:21.270Z,9.49
2018-11-28T00:27:50.122Z,9.50
2018-11-28T00:30:24.299Z,9.45
2018-11-28T00:32:53.546Z,9.41
2018-11-28T00:35:23.230Z,9.42
2018-11-28T00:37:52.458Z,9.31
2018-11-28T00:40:22.704Z,9.12
2018-11-28T00:42:51.593Z,9.02
2018-11-28T00:45:23.230Z,9.05
2018-11-28T00:47:52.325Z,8.87
2018-11-28T00:50:23.769Z,8.85
2018-11-28T00:52:52.816Z,8.83
2018-11-28T00:55:21.906Z,8.82
2018-11-28T00:57:50.794Z,8.75
2018-11-28T01:00:23.111Z,8.62
2018-11-28T01:02:52.066Z,8.49
2018-11-28T01:05:21.005Z,8.51
2018-11-28T01:07:51.949Z,8.49
2018-11-28T01:10:22.239Z,8.48
2018-11-28T01:12:51.692Z,8.51
2018-11-28T01:15:21.278Z,8.61
2018-11-28T01:17:50.193Z,8.66
2018-11-28T01:20:21.693Z,8.67
2018-11-28T01:22:50.541Z,8.69
2018-11-28T01:25:20.471Z,8.53
2018-11-28T01:27:49.862Z,8.58
2018-11-28T01:30:20.105Z,8.57
2018-11-28T01:32:48.985Z,8.53
2018-11-28T01:35:18.955Z,8.55
2018-11-28T01:37:47.854Z,8.58
2018-11-28T01:40:23.215Z,8.53
2018-11-28T01:42:52.329Z,8.44
2018-11-28T01:45:22.645Z,8.51
2018-11-28T01:47:51.858Z,8.54
2018-11-28T01:50:21.608Z,8.45
2018-11-28T01:52:50.589Z,8.48
2018-11-28T01:55:20.778Z,8.42
2018-11-28T01:57:49.963Z,8.42
2018-11-28T02:00:22.912Z,8.44
2018-11-28T02:02:57.449Z,8.46
2018-11-28T02:05:26.406Z,8.43
2018-11-28T02:07:55.850Z,8.45
2018-11-28T02:10:25.059Z,8.42
2018-11-28T02:12:54.064Z,8.31
2018-11-28T02:15:27.055Z,8.29
2018-11-28T02:17:57.162Z,8.25
2018-11-28T02:20:26.451Z,8.18
2018-11-28T02:22:55.963Z,8.19
2018-11-28T02:25:24.826Z,8.20
2018-11-28T02:27:53.815Z,8.22
2018-11-28T02:30:23.057Z,8.22
2018-11-28T02:32:51.869Z,8.26
2018-11-28T02:35:21.235Z,8.26
2018-11-28T02:37:50.738Z,8.23
2018-11-28T02:40:20.329Z,8.24
2018-11-28T02:42:50.398Z,8.25
2018-11-28T02:45:22.312Z,8.10
2018-11-28T02:47:52.047Z,8.07
2018-11-28T02:50:20.918Z,8.07
2018-11-28T02:52:49.920Z,8.04
2018-11-28T02:55:19.453Z,7.93
2018-11-28T02:57:49.448Z,7.88
2018-11-28T03:00:19.878Z,7.80
2018-11-28T03:02:49.084Z,7.80
2018-11-28T03:05:18.020Z,7.77
2018-11-28T03:07:47.205Z,7.75
2018-11-28T03:10:21.095Z,7.72
2018-11-28T03:12:50.485Z,7.62
2018-11-28T03:15:26.559Z,7.63
2018-11-28T03:17:55.838Z,7.56
2018-11-28T03:20:25.045Z,7.52
2018-11-28T03:22:53.782Z,7.54
2018-11-28T03:25:23.044Z,7.48
2018-11-28T03:27:52.861Z,7.49
2018-11-28T03:30:21.959Z,7.47
2018-11-28T03:32:50.912Z,7.48
2018-11-28T03:35:19.750Z,7.50
2018-11-28T03:37:48.780Z,7.53
2018-11-28T03:40:17.564Z,7.52
2018-11-28T03:42:46.686Z,7.46
2018-11-28T03:45:16.484Z,7.44
2018-11-28T03:47:46.263Z,7.39
2018-11-28T03:50:16.074Z,7.40
2018-11-28T03:52:45.241Z,7.42
2018-11-28T03:55:14.878Z,7.44
2018-11-28T03:57:44.840Z,7.37
2018-11-28T04:00:18.051Z,7.34
2018-11-28T04:02:47.241Z,7.29
2018-11-28T04:05:16.210Z,7.28
2018-11-28T04:07:45.158Z,7.27
2018-11-28T04:10:14.959Z,7.27
2018-11-28T04:12:44.889Z,7.29
2018-11-28T04:15:17.013Z,7.30
2018-11-28T04:17:46.217Z,7.30
2018-11-28T04:20:19.005Z,7.28
2018-11-28T04:22:47.836Z,7.26
2018-11-28T04:25:17.523Z,7.23
2018-11-28T04:27:46.827Z,7.21
2018-11-28T04:30:17.886Z,7.14
2018-11-28T04:32:47.672Z,7.14
2018-11-28T04:35:16.958Z,7.10
2018-11-28T04:37:46.381Z,7.11
2018-11-28T04:40:16.140Z,7.10
2018-11-28T04:42:45.585Z,7.06
2018-11-28T04:45:22.556Z,7.05
2018-11-28T04:47:52.466Z,7.02
2018-11-28T04:50:21.606Z,7.02
2018-11-28T04:52:50.407Z,7.00
2018-11-28T04:55:20.099Z,7.00
2018-11-28T04:57:50.282Z,6.98
2018-11-28T05:00:21.742Z,7.00
2018-11-28T05:02:51.163Z,6.96
2018-11-28T05:05:20.543Z,6.95
2018-11-28T05:07:50.182Z,6.91
2018-11-28T05:10:22.124Z,6.88
2018-11-28T05:12:51.582Z,6.85
2018-11-28T05:15:21.295Z,6.86
2018-11-28T05:17:51.245Z,6.83
2018-11-28T05:20:23.246Z,6.85
2018-11-28T05:22:52.418Z,6.84
2018-11-28T05:25:23.111Z,6.87
2018-11-28T05:27:53.254Z,6.83
2018-11-28T05:30:25.228Z,6.81
2018-11-28T05:32:54.541Z,6.81
2018-11-28T05:35:28.047Z,6.79
2018-11-28T05:37:57.343Z,6.78
2018-11-28T05:40:27.723Z,6.78
2018-11-28T05:42:58.193Z,6.76
2018-11-28T05:45:27.393Z,6.78
2018-11-28T05:47:56.300Z,6.73
2018-11-28T05:50:25.168Z,6.72
2018-11-28T05:52:54.083Z,6.71
2018-11-28T05:55:23.541Z,6.70
2018-11-28T05:57:52.650Z,6.70
2018-11-28T06:00:33.306Z,6.69
2018-11-28T06:03:02.182Z,6.67
2018-11-28T06:05:31.526Z,6.64
2018-11-28T06:08:00.260Z,6.66
2018-11-28T06:10:29.147Z,6.65
2018-11-28T06:12:58.384Z,6.64
2018-11-28T06:15:27.491Z,6.65
2018-11-28T06:17:56.380Z,6.56
2018-11-28T06:20:25.158Z,6.64
2018-11-28T06:22:54.378Z,6.61
2018-11-28T06:25:23.167Z,6.61
2018-11-28T06:27:52.058Z,6.58
2018-11-28T06:30:21.768Z,6.65
2018-11-28T06:32:51.464Z,6.70
2018-11-28T06:35:19.752Z,6.65
2018-11-28T06:37:48.944Z,6.66
2018-11-28T06:40:23.941Z,6.68
2018-11-28T06:42:49.378Z,6.68
2018-11-28T06:45:19.450Z,6.68
2018-11-28T06:47:48.252Z,6.64
2018-11-28T06:50:17.975Z,6.68
2018-11-28T06:52:48.513Z,6.70
2018-11-28T06:55:18.659Z,6.72
2018-11-28T06:57:47.581Z,6.68
2018-11-28T07:00:19.896Z,6.64
2018-11-28T07:02:49.753Z,6.66
2018-11-28T07:05:18.807Z,6.63
2018-11-28T07:07:47.559Z,6.66
2018-11-28T07:10:18.807Z,6.62
2018-11-28T07:12:47.964Z,6.65
2018-11-28T07:15:17.801Z,6.64
2018-11-28T07:17:46.666Z,6.66
2018-11-28T07:20:16.313Z,6.66
2018-11-28T07:22:45.201Z,6.67
2018-11-28T07:25:15.950Z,6.69
2018-11-28T07:27:45.674Z,6.63
2018-11-28T07:30:20.114Z,6.64
2018-11-28T07:32:50.002Z,6.62
2018-11-28T07:35:18.744Z,6.62
2018-11-28T07:37:47.953Z,6.59
2018-11-28T07:40:23.956Z,6.61
2018-11-28T07:43:03.657Z,6.54
2018-11-28T07:45:32.696Z,6.60
2018-11-28T07:48:01.658Z,6.59
2018-11-28T07:50:30.589Z,6.71
2018-11-28T07:52:59.844Z,6.79
2018-11-28T07:55:28.853Z,6.90
2018-11-28T07:57:57.878Z,6.92
2018-11-28T08:00:27.122Z,6.85
2018-11-28T08:02:56.072Z,6.84
2018-11-28T08:05:25.293Z,6.86
2018-11-28T08:07:54.497Z,6.87
2018-11-28T08:10:25.165Z,6.87
2018-11-28T08:12:56.076Z,6.83
2018-11-28T08:15:24.990Z,6.78
2018-11-28T08:17:53.889Z,6.78
2018-11-28T08:20:23.054Z,6.77
2018-11-28T08:22:52.057Z,6.88
2018-11-28T08:25:20.970Z,6.90
2018-11-28T08:27:50.828Z,6.90
2018-11-28T08:30:23.511Z,6.88
2018-11-28T08:32:52.524Z,6.91
2018-11-28T08:35:21.800Z,6.95
2018-11-28T08:37:50.913Z,6.94
2018-11-28T08:40:23.166Z,6.92
2018-11-28T08:42:52.315Z,6.95
2018-11-28T08:45:22.015Z,7.04
2018-11-28T08:47:51.989Z,7.02
2018-11-28T08:50:23.160Z,7.02
2018-11-28T08:52:52.121Z,7.07
2018-11-28T08:55:21.453Z,7.11
2018-11-28T08:57:50.896Z,7.12
2018-11-28T09:00:21.277Z,6.95
2018-11-28T09:02:52.429Z,6.94
2018-11-28T09:05:21.620Z,6.95
2018-11-28T09:07:50.935Z,6.96
2018-11-28T09:10:20.664Z,7.04
2018-11-28T09:12:50.540Z,6.94
2018-11-28T09:15:25.538Z,6.98
2018-11-28T09:17:54.624Z,7.03
2018-11-28T09:20:23.781Z,6.98
2018-11-28T09:22:53.114Z,6.70
2018-11-28T09:25:22.335Z,6.70
2018-11-28T09:27:55.257Z,6.87
2018-11-28T09:30:24.116Z,6.96
2018-11-28T09:32:53.205Z,7.04
2018-11-28T09:35:22.465Z,7.11
2018-11-28T09:37:51.656Z,7.16
2018-11-28T09:40:25.188Z,7.29
2018-11-28T09:42:55.524Z,7.34
2018-11-28T09:45:24.356Z,7.36
2018-11-28T09:47:53.210Z,7.48
2018-11-28T09:50:23.187Z,7.52
2018-11-28T09:52:52.166Z,7.49
2018-11-28T09:55:28.390Z,7.59
2018-11-28T09:57:58.089Z,7.66
2018-11-28T10:00:28.139Z,7.69
2018-11-28T10:02:58.435Z,7.71
2018-11-28T10:05:29.240Z,7.78
2018-11-28T10:07:58.066Z,7.91
2018-11-28T10:10:27.166Z,7.96
2018-11-28T10:12:56.096Z,8.01
2018-11-28T10:15:26.006Z,7.93
2018-11-28T10:17:55.087Z,7.88
2018-11-28T10:20:24.027Z,7.77
2018-11-28T10:22:54.000Z,7.61
2018-11-28T10:25:24.052Z,7.41
2018-11-28T10:28:01.083Z,7.37
2018-11-28T10:30:31.552Z,7.33
2018-11-28T10:33:00.428Z,7.19
2018-11-28T10:35:29.443Z,7.17
2018-11-28T10:37:58.298Z,7.31
2018-11-28T10:40:27.072Z,7.33
2018-11-28T10:42:57.026Z,7.38
2018-11-28T10:45:27.616Z,7.34
2018-11-28T10:47:56.593Z,7.27
2018-11-28T10:50:25.472Z,7.17
2018-11-28T10:52:54.405Z,7.18
2018-11-28T10:55:24.457Z,7.26
2018-11-28T10:57:53.389Z,7.41
2018-11-28T11:00:28.315Z,7.40
2018-11-28T11:03:02.516Z,7.56
2018-11-28T11:05:36.556Z,7.58
2018-11-28T11:08:10.975Z,7.38
2018-11-28T11:10:44.964Z,7.32
2018-11-28T11:13:19.237Z,7.34
2018-11-28T11:15:53.342Z,7.22
2018-11-28T11:18:22.244Z,7.04
2018-11-28T11:20:51.153Z,6.86
2018-11-28T11:23:20.342Z,6.82
2018-11-28T11:25:49.622Z,6.83
2018-11-28T11:28:18.621Z,6.81
2018-11-28T11:30:48.338Z,6.83
2018-11-28T11:33:17.702Z,6.87
2018-11-28T11:35:47.012Z,7.04
2018-11-28T11:38:16.877Z,7.05
2018-11-28T11:40:45.793Z,7.06
2018-11-28T11:43:14.835Z,7.09
2018-11-28T11:45:43.946Z,7.06
2018-11-28T11:48:13.096Z,7.15
2018-11-28T11:50:42.145Z,7.18
2018-11-28T11:53:11.306Z,7.22
2018-11-28T11:55:40.491Z,7.28
2018-11-28T11:58:09.495Z,7.19
2018-11-28T12:00:40.062Z,7.11
2018-11-28T12:03:12.266Z,7.09
2018-11-28T12:06:00.991Z,7.17
2018-11-28T12:08:30.285Z,7.24
2018-11-28T12:10:59.365Z,7.19
2018-11-28T12:13:28.233Z,6.99
2018-11-28T12:15:57.227Z,6.92
2018-11-28T12:18:26.503Z,6.90
2018-11-28T12:20:57.972Z,6.81
2018-11-28T12:23:26.821Z,6.77
2018-11-28T12:25:56.191Z,6.77
2018-11-28T12:28:26.122Z,6.71
2018-11-28T12:30:55.422Z,6.64
2018-11-28T12:33:24.604Z,6.66
2018-11-28T12:35:54.334Z,6.61
2018-11-28T12:38:23.126Z,6.65
2018-11-28T12:40:52.782Z,6.58
2018-11-28T12:43:22.062Z,6.44
2018-11-28T12:45:51.793Z,6.40
2018-11-28T12:48:20.628Z,6.38
2018-11-28T12:50:49.922Z,6.31
2018-11-28T12:53:18.759Z,6.32
2018-11-28T12:55:47.657Z,6.31
2018-11-28T12:58:19.526Z,6.34
2018-11-28T13:00:48.842Z,6.33
2018-11-28T13:03:19.406Z,6.34
2018-11-28T13:05:54.836Z,6.28
2018-11-28T13:08:23.711Z,6.26
2018-11-28T13:10:52.682Z,6.22
2018-11-28T13:13:21.783Z,6.26
2018-11-28T13:15:50.933Z,6.14
2018-11-28T13:18:20.100Z,6.22
2018-11-28T13:20:49.355Z,6.13
2018-11-28T13:23:18.503Z,6.14
2018-11-28T13:25:47.896Z,6.06
2018-11-28T13:28:17.012Z,6.09
2018-11-28T13:30:46.546Z,6.02
2018-11-28T13:33:15.748Z,6.02
2018-11-28T13:35:44.579Z,6.06
2018-11-28T13:38:14.041Z,6.00
2018-11-28T13:40:44.141Z,6.00
2018-11-28T13:43:13.658Z,5.98
2018-11-28T13:45:45.273Z,5.89
2018-11-28T13:48:14.954Z,5.81
2018-11-28T13:50:43.806Z,5.61
2018-11-28T13:53:16.336Z,5.55
2018-11-28T13:56:29.932Z,5.42
2018-11-28T13:58:16.203Z,5.35
2018-11-28T14:00:45.067Z,5.39
2018-11-28T14:03:13.980Z,5.41
2018-11-28T14:05:43.081Z,5.39
2018-11-28T14:08:12.379Z,5.45
2018-11-28T14:10:41.330Z,5.38
2018-11-28T14:13:10.426Z,5.38
2018-11-28T14:15:39.378Z,5.35
2018-11-28T14:18:10.778Z,5.33
2018-11-28T14:20:39.825Z,5.33
2018-11-28T14:23:08.821Z,5.30
2018-11-28T14:25:37.864Z,5.29
2018-11-28T14:28:07.497Z,5.33
2018-11-28T14:30:37.281Z,5.28
2018-11-28T14:33:06.450Z,5.22
2018-11-28T14:35:35.366Z,5.22
2018-11-28T14:38:04.508Z,5.22
2018-11-28T14:40:33.992Z,5.12
2018-11-28T14:43:03.120Z,5.06
2018-11-28T14:45:33.185Z,5.12
2018-11-28T14:48:02.281Z,5.09
2018-11-28T14:50:31.286Z,5.11
2018-11-28T14:53:02.079Z,5.12
2018-11-28T14:55:32.506Z,5.09
2018-11-28T14:58:01.737Z,5.05
2018-11-28T15:00:31.743Z,5.02
2018-11-28T15:03:33.965Z,5.04
2018-11-28T15:06:44.937Z,4.95
2018-11-28T15:09:19.033Z,4.89
2018-11-28T15:11:47.953Z,4.82
2018-11-28T15:14:16.795Z,4.87
2018-11-28T15:16:46.859Z,4.86
2018-11-28T15:19:16.041Z,4.83
2018-11-28T15:21:45.247Z,4.77
2018-11-28T15:24:14.386Z,4.78
2018-11-28T15:26:43.283Z,4.85
2018-11-28T15:29:12.246Z,4.80
2018-11-28T15:31:41.106Z,4.71
2018-11-28T15:34:10.330Z,4.70
2018-11-28T15:36:39.238Z,4.68
2018-11-28T15:39:09.763Z,4.60
2018-11-28T15:41:39.382Z,4.56
2018-11-28T15:44:08.270Z,4.35
2018-11-28T15:46:37.207Z,4.20
2018-11-28T15:49:06.400Z,3.88
2018-11-28T15:51:35.534Z,3.83
2018-11-28T15:54:04.926Z,3.92
2018-11-28T15:56:33.816Z,3.79
2018-11-28T15:59:02.759Z,3.75
2018-11-28T16:01:31.662Z,3.67
2018-11-28T16:04:00.515Z,3.42
2018-11-28T16:07:01.294Z,3.53
2018-11-28T16:09:56.196Z,3.43
2018-11-28T16:15:40.739Z,3.43
2018-11-28T16:18:10.060Z,3.42
2018-11-28T16:20:39.783Z,3.48
2018-11-28T16:23:08.582Z,3.59
2018-11-28T16:25:37.566Z,3.61
2018-11-28T16:28:07.278Z,3.37
2018-11-28T16:30:37.132Z,3.27
2018-11-28T16:33:07.168Z,3.28
2018-11-28T16:35:37.175Z,3.37
2018-11-28T16:38:06.598Z,3.25
2018-11-28T16:40:35.546Z,3.26
2018-11-28T16:43:04.654Z,3.09
2018-11-28T16:45:34.358Z,3.12
2018-11-28T16:48:03.539Z,3.16
2018-11-28T16:50:32.659Z,3.25
2018-11-28T16:53:01.854Z,3.11
2018-11-28T16:55:30.755Z,3.13
2018-11-28T16:57:59.916Z,3.13
2018-11-28T17:00:30.123Z,3.02
2018-11-28T17:02:59.248Z,2.93
2018-11-28T17:05:28.377Z,2.82
2018-11-28T17:07:57.192Z,2.87
2018-11-28T17:10:29.303Z,2.90
2018-11-28T17:12:59.000Z,2.88
2018-11-28T17:15:28.090Z,2.72
2018-11-28T17:17:57.326Z,2.74
2018-11-28T17:20:28.151Z,2.81
2018-11-28T17:22:58.461Z,2.83
2018-11-28T17:25:31.786Z,2.88
2018-11-28T17:28:00.772Z,2.88
2018-11-28T17:30:31.439Z,2.69
2018-11-28T17:33:00.730Z,2.70
2018-11-28T17:35:30.924Z,2.76
2018-11-28T17:38:00.029Z,2.77
2018-11-28T17:40:29.822Z,2.79
2018-11-28T17:42:59.811Z,2.80
2018-11-28T17:45:29.781Z,2.72
2018-11-28T17:47:58.714Z,2.60
2018-11-28T17:50:28.264Z,2.60
2018-11-28T17:53:01.791Z,2.58
2018-11-28T17:55:33.366Z,2.61
2018-11-28T17:58:02.534Z,2.57
2018-11-28T18:00:31.728Z,2.54
2018-11-28T18:03:00.531Z,2.55
2018-11-28T18:05:29.901Z,2.55
2018-11-28T18:07:59.118Z,2.55
2018-11-28T18:10:29.158Z,2.51
2018-11-28T18:13:16.942Z,2.49
2018-11-28T18:15:48.888Z,2.47
2018-11-28T18:18:19.485Z,2.48
2018-11-28T18:20:50.327Z,2.49
2018-11-28T18:23:17.645Z,2.49
2018-11-28T18:25:47.381Z,2.48
2018-11-28T18:28:16.277Z,2.49
2018-11-28T18:30:45.127Z,2.42
2018-11-28T18:33:14.771Z,2.46
2018-11-28T18:35:44.265Z,2.47
2018-11-28T18:38:13.426Z,2.48
2018-11-28T18:40:42.603Z,2.54
2018-11-28T18:43:12.251Z,2.54
2018-11-28T18:45:44.012Z,2.54
2018-11-28T18:48:13.191Z,2.56
2018-11-28T18:50:42.111Z,2.55
2018-11-28T18:53:11.107Z,2.57
2018-11-28T18:55:40.315Z,2.59
2018-11-28T18:58:10.820Z,2.57
2018-11-28T19:00:40.323Z,2.61
2018-11-28T19:03:09.298Z,2.57
2018-11-28T19:05:38.624Z,2.54
2018-11-28T19:08:08.548Z,2.48
2018-11-28T19:10:37.356Z,2.50
2018-11-28T19:13:06.644Z,2.49
2018-11-28T19:15:35.661Z,2.39
2018-11-28T19:18:05.283Z,2.46
2018-11-28T19:20:34.680Z,2.48
2018-11-28T19:23:03.838Z,2.53
2018-11-28T19:25:32.914Z,2.52
2018-11-28T19:28:02.251Z,2.52
2018-11-28T19:30:35.018Z,2.45
2018-11-28T19:33:04.218Z,2.41
2018-11-28T19:35:33.635Z,2.43
2018-11-28T19:38:03.011Z,2.43
2018-11-28T19:40:43.546Z,2.46
2018-11-28T19:43:13.138Z,2.45
2018-11-28T19:45:41.939Z,2.44
2018-11-28T19:48:11.759Z,2.40
2018-11-28T19:50:41.419Z,2.43
2018-11-28T19:53:11.273Z,2.46
2018-11-28T19:55:41.239Z,2.45
2018-11-28T19:58:10.343Z,2.39
2018-11-28T20:00:43.418Z,2.39
2018-11-28T20:03:12.552Z,2.36
2018-11-28T20:05:41.463Z,2.24
2018-11-28T20:08:11.510Z,2.31
2018-11-28T20:10:40.385Z,2.31
2018-11-28T20:13:10.218Z,2.39
2018-11-28T20:15:40.778Z,2.40
2018-11-28T20:18:09.911Z,2.35
2018-11-28T20:20:38.782Z,2.35
2018-11-28T20:23:08.798Z,2.24
2018-11-28T20:25:37.773Z,2.16
2018-11-28T20:28:07.730Z,2.12
2018-11-28T20:30:42.699Z,2.16
2018-11-28T20:33:12.139Z,2.12
2018-11-28T20:35:41.738Z,2.13
2018-11-28T20:38:29.458Z,2.07
2018-11-28T20:40:58.682Z,2.06
2018-11-28T20:43:28.057Z,2.07
2018-11-28T20:45:56.956Z,1.98
2018-11-28T20:48:25.813Z,1.91
2018-11-28T20:50:55.342Z,1.94
2018-11-28T20:53:24.263Z,1.95
2018-11-28T20:55:53.296Z,1.95
2018-11-28T20:58:22.096Z,1.92
2018-11-28T21:00:51.381Z,1.87
2018-11-28T21:03:20.344Z,1.88
2018-11-28T21:05:49.195Z,1.91
2018-11-28T21:08:18.155Z,1.90
2018-11-28T21:10:47.038Z,1.91
2018-11-28T21:13:15.923Z,1.85
2018-11-28T21:15:45.835Z,1.86
2018-11-28T21:18:15.080Z,1.84
2018-11-28T21:20:45.726Z,1.86
2018-11-28T21:23:16.254Z,1.87
2018-11-28T21:25:45.213Z,1.85
2018-11-28T21:28:14.308Z,1.86
2018-11-28T21:30:43.315Z,1.77
2018-11-28T21:33:13.673Z,1.79
2018-11-28T21:35:45.746Z,1.82
2018-11-28T21:38:15.467Z,1.74
2018-11-28T21:40:44.567Z,1.73
2018-11-28T21:43:13.423Z,1.74
2018-11-28T21:45:42.365Z,1.77
2018-11-28T21:48:11.270Z,1.80
2018-11-28T21:50:40.203Z,1.79
2018-11-28T21:53:09.905Z,1.79
2018-11-28T21:55:38.741Z,1.81
2018-11-28T21:58:07.657Z,1.81
2018-11-28T22:00:37.504Z,1.87
2018-11-28T22:03:07.991Z,1.89
2018-11-28T22:05:36.982Z,1.95
2018-11-28T22:08:05.923Z,1.96
2018-11-28T22:10:35.130Z,1.99
2018-11-28T22:13:04.528Z,1.94
2018-11-28T22:15:33.467Z,1.88
2018-11-28T22:18:02.383Z,1.86
2018-11-28T22:20:31.542Z,1.87
2018-11-28T22:23:00.697Z,1.86
2018-11-28T22:25:29.650Z,1.81
2018-11-28T22:27:58.396Z,1.80
2018-11-28T22:30:28.394Z,1.85
2018-11-28T22:32:57.596Z,1.84
2018-11-28T22:35:26.778Z,1.85
2018-11-28T22:37:55.590Z,1.80
2018-11-28T22:40:29.990Z,1.82
2018-11-28T22:42:58.763Z,1.85
2018-11-28T22:45:30.721Z,1.85
2018-11-28T22:47:59.697Z,1.83
2018-11-28T22:50:28.666Z,1.85
2018-11-28T22:52:57.846Z,1.86
2018-11-28T22:55:27.348Z,1.88
2018-11-28T22:57:56.275Z,1.93
2018-11-28T23:00:31.203Z,1.94
2018-11-28T23:03:02.952Z,1.86
2018-11-28T23:05:33.357Z,1.81
2018-11-28T23:08:03.635Z,1.82
2018-11-28T23:10:32.550Z,1.84
2018-11-28T23:13:01.596Z,1.86
2018-11-28T23:15:30.543Z,1.79
2018-11-28T23:17:59.872Z,1.81
2018-11-28T23:20:28.923Z,1.82
2018-11-28T23:22:57.943Z,1.83
2018-11-28T23:25:26.951Z,1.79
2018-11-28T23:27:56.564Z,1.80
2018-11-28T23:30:25.755Z,1.83
2018-11-28T23:32:55.387Z,1.83
2018-11-28T23:35:25.123Z,1.85
2018-11-28T23:37:54.385Z,1.86
2018-11-28T23:40:25.464Z,1.89
2018-11-28T23:42:55.563Z,1.93
2018-11-28T23:45:25.062Z,1.95
2018-11-28T23:47:54.023Z,1.90
2018-11-28T23:50:25.077Z,1.99
2018-11-28T23:52:55.275Z,2.00
2018-11-28T23:55:26.087Z,1.92
2018-11-28T23:57:56.587Z,1.95
